createdAt,value
2023-01-01T00:01:34.516Z,23.4
2023-01-01T00:06:45.120Z,23
2023-01-01T00:11:36.704Z,22.8
2023-01-01T00:16:44.054Z,22.6
2023-01-01T00:21:25.783Z,22.5
2023-01-01T00:26:56.814Z,22.9
2023-01-01T00:31:49.028Z,23.4
2023-01-01T00:36:55.610Z,23.9
2023-01-01T00:42:02.526Z,23.8
2023-01-01T00:47:02.013Z,23.3
2023-01-01T00:51:53.991Z,22.9
2023-01-01T00:57:00.869Z,22.8
2023-01-01T01:02:23.616Z,22.5
2023-01-01T01:07:31.728Z,22.6
2023-01-01T01:13:09.081Z,22.9
2023-01-01T01:18:00.893Z,23.5
2023-01-01T01:22:56.667Z,23.6
2023-01-01T01:28:03.277Z,23.4
2023-01-01T01:32:56.188Z,23.4
2023-01-01T01:38:10.881Z,23.9
2023-01-01T01:43:25.584Z,23.8
2023-01-01T01:48:37.738Z,23.3
2023-01-01T01:53:14.012Z,23
2023-01-01T01:58:05.425Z,22.8
2023-01-01T02:03:16.853Z,22.6
2023-01-01T02:08:23.968Z,22.6
2023-01-01T02:13:20.619Z,22.9
2023-01-01T02:18:30.093Z,23.6
2023-01-01T02:23:21.633Z,23.9
2023-01-01T02:28:12.155Z,23.6
2023-01-01T02:33:21.180Z,23.2
2023-01-01T02:38:13.091Z,22.9
2023-01-01T02:43:03.930Z,22.8
2023-01-01T02:47:58.961Z,22.6
2023-01-01T02:52:54.860Z,22.6
2023-01-01T02:58:00.927Z,23
2023-01-01T03:02:52.579Z,23.6
2023-01-01T03:07:59.662Z,24
2023-01-01T03:13:07.312Z,23.7
2023-01-01T03:17:59.461Z,23.3
2023-01-01T03:23:05.724Z,22.9
2023-01-01T03:28:18.892Z,22.8
2023-01-01T03:33:25.851Z,22.6
2023-01-01T03:38:32.439Z,22.7
2023-01-01T03:43:08.957Z,23.1
2023-01-01T03:48:15.963Z,23.6
2023-01-01T03:53:38.831Z,24.1
2023-01-01T03:57:59.647Z,23.8
2023-01-01T04:03:08.012Z,23.4
2023-01-01T04:08:23.184Z,23.1
2023-01-01T04:13:30.015Z,22.9
2023-01-01T04:18:37.828Z,22.6
2023-01-01T04:23:36.966Z,22.7
2023-01-01T04:28:43.599Z,23
2023-01-01T04:33:50.688Z,23.3
2023-01-01T04:38:42.005Z,23.3
2023-01-01T04:43:33.433Z,23.1
2023-01-01T04:48:41.240Z,23.5
2023-01-01T04:53:48.325Z,23.9
2023-01-01T04:58:39.397Z,23.7
2023-01-01T05:03:31.403Z,23.3
2023-01-01T05:08:53.899Z,23
2023-01-01T05:14:16.803Z,22.8
2023-01-01T05:19:23.471Z,22.6
2023-01-01T05:24:51.277Z,22.7
2023-01-01T05:30:22.027Z,23.2
2023-01-01T05:35:13.015Z,23.8
2023-01-01T05:40:35.381Z,23.9
2023-01-01T05:45:58.546Z,23.6
2023-01-01T05:51:05.440Z,23.1
2023-01-01T05:56:11.963Z,22.9
2023-01-01T06:01:19.717Z,22.7
2023-01-01T06:06:50.102Z,22.6
2023-01-01T06:12:19.084Z,22.9
2023-01-01T06:17:45.147Z,23.5
2023-01-01T06:22:52.177Z,24.1
2023-01-01T06:28:16.082Z,23.9
2023-01-01T06:33:39.400Z,23.4
2023-01-01T06:39:03.618Z,23.1
2023-01-01T06:44:30.731Z,22.8
2023-01-01T06:49:53.839Z,22.6
2023-01-01T06:54:44.629Z,22.8
2023-01-01T07:00:12.189Z,23.1
2023-01-01T07:05:44.378Z,23.7
2023-01-01T07:11:11.943Z,23.9
2023-01-01T07:16:34.969Z,23.8
2023-01-01T07:22:03.302Z,23.6
2023-01-01T07:27:24.978Z,24.1
2023-01-01T07:32:47.828Z,23.9
2023-01-01T07:38:10.264Z,23.5
2023-01-01T07:43:34.676Z,23.1
2023-01-01T07:48:41.701Z,22.9
2023-01-01T07:54:07.286Z,22.6
2023-01-01T07:59:36.660Z,22.8
2023-01-01T08:05:00.052Z,23.3
2023-01-01T08:10:28.972Z,23.9
2023-01-01T08:15:52.163Z,23.8
2023-01-01T08:21:22.207Z,23.4
2023-01-01T08:26:45.106Z,23
2023-01-01T08:32:11.827Z,22.8
2023-01-01T08:37:19.304Z,22.6
2023-01-01T08:42:46.428Z,22.7
2023-01-01T08:48:09.016Z,23.2
2023-01-01T08:53:36.031Z,23.8
2023-01-01T08:59:04.041Z,23.9
2023-01-01T09:04:32.198Z,23.4
2023-01-01T09:09:45.636Z,23
2023-01-01T09:15:09.030Z,22.8
2023-01-01T09:20:33.827Z,22.6
2023-01-01T09:25:56.454Z,22.7
2023-01-01T09:31:24.744Z,23.1
2023-01-01T09:36:49.088Z,23.7
2023-01-01T09:42:15.192Z,23.7
2023-01-01T09:47:39.418Z,23.3
2023-01-01T09:53:10.818Z,23.2
2023-01-01T09:58:25.098Z,23.7
2023-01-01T10:03:38.727Z,23.9
2023-01-01T10:08:45.927Z,23.6
2023-01-01T10:14:08.922Z,23.4
2023-01-01T10:19:32.980Z,23.4
2023-01-01T10:24:44.345Z,24.1
2023-01-01T10:30:19.924Z,23.9
2023-01-01T10:35:30.314Z,23.6
2023-01-01T10:40:52.056Z,23.4
2023-01-01T10:46:26.160Z,23.8
2023-01-01T10:51:52.638Z,24.1
2023-01-01T10:57:17.766Z,23.8
2023-01-01T11:02:42.398Z,23.5
2023-01-01T11:08:13.053Z,23.6
2023-01-01T11:14:27.135Z,24.2
2023-01-01T11:19:51.856Z,23.9
2023-01-01T11:25:15.796Z,23.6
2023-01-01T11:30:22.586Z,23.5
2023-01-01T11:35:45.076Z,23.9
2023-01-01T11:41:15.719Z,24.3
2023-01-01T11:46:27.886Z,23.9
2023-01-01T11:51:50.650Z,23.6
2023-01-01T11:57:13.700Z,23.6
2023-01-01T12:02:35.621Z,24.2
2023-01-01T12:08:04.625Z,24.2
2023-01-01T12:13:33.297Z,23.8
2023-01-01T12:19:02.074Z,23.6
2023-01-01T12:24:25.175Z,23.8
2023-01-01T12:29:56.790Z,24.3
2023-01-01T12:34:48.905Z,24
2023-01-01T12:39:56.193Z,23.7
2023-01-01T12:45:09.532Z,23.5
2023-01-01T12:50:36.878Z,23.8
2023-01-01T12:55:49.595Z,24.2
2023-01-01T13:00:57.185Z,23.8
2023-01-01T13:06:28.257Z,23.6
2023-01-01T13:11:39.859Z,23.5
2023-01-01T13:17:05.120Z,23.9
2023-01-01T13:22:27.614Z,23.9
2023-01-01T13:27:38.782Z,23.5
2023-01-01T13:32:46.942Z,23.3
2023-01-01T13:38:12.849Z,23.6
2023-01-01T13:43:38.645Z,23.9
2023-01-01T13:49:23.581Z,23.6
2023-01-01T13:54:58.039Z,23.2
2023-01-01T14:00:20.781Z,23.4
2023-01-01T14:05:30.151Z,23.9
2023-01-01T14:11:32.388Z,23.6
2023-01-01T14:16:55.183Z,23.2
2023-01-01T14:22:18.479Z,23.2
2023-01-01T14:27:41.249Z,23.8
2023-01-01T14:33:08.206Z,23.6
2023-01-01T14:38:31.455Z,23.3
2023-01-01T14:43:58.394Z,23.1
2023-01-01T14:49:24.683Z,23.7
2023-01-01T14:54:32.430Z,23.7
2023-01-01T15:00:01.946Z,23.4
2023-01-01T15:05:27.665Z,23.1
2023-01-01T15:10:51.533Z,23.5
2023-01-01T15:16:17.508Z,23.9
2023-01-01T15:21:31.219Z,23.6
2023-01-01T15:26:54.645Z,23.3
2023-01-01T15:32:24.683Z,23.3
2023-01-01T15:37:47.228Z,23.9
2023-01-01T15:43:10.186Z,23.7
2023-01-01T15:48:17.598Z,23.4
2023-01-01T15:53:46.053Z,23.2
2023-01-01T15:58:53.517Z,23.5
2023-01-01T16:04:20.773Z,23.8
2023-01-01T16:09:48.524Z,23.4
2023-01-01T16:15:14.116Z,23.2
2023-01-01T16:20:22.267Z,23.4
2023-01-01T16:25:33.502Z,23.9
2023-01-01T16:30:46.554Z,23.6
2023-01-01T16:36:15.129Z,23.4
2023-01-01T16:41:44.631Z,23.3
2023-01-01T16:47:09.635Z,23.7
2023-01-01T16:52:18.749Z,23.9
2023-01-01T16:57:49.192Z,23.5
2023-01-01T17:03:56.632Z,23.3
2023-01-01T17:09:21.456Z,23.6
2023-01-01T17:14:47.284Z,24.1
2023-01-01T17:20:41.691Z,23.7
2023-01-01T17:26:10.439Z,23.3
2023-01-01T17:31:17.680Z,23.1
2023-01-01T17:36:28.377Z,22.9
2023-01-01T17:41:41.311Z,22.7
2023-01-01T17:47:04.423Z,23.1
2023-01-01T17:52:12.160Z,23.6
2023-01-01T17:57:35.791Z,23.8
2023-01-01T18:02:50.424Z,23.4
2023-01-01T18:08:25.904Z,23.1
2023-01-01T18:13:17.032Z,22.9
2023-01-01T18:18:24.504Z,22.7
2023-01-01T18:23:50.130Z,22.6
2023-01-01T18:29:20.729Z,22.9
2023-01-01T18:34:28.181Z,23.6
2023-01-01T18:39:51.184Z,23.6
2023-01-01T18:45:20.135Z,23.3
2023-01-01T18:50:27.762Z,22.9
2023-01-01T18:55:35.327Z,22.8
2023-01-01T19:00:50.130Z,22.6
2023-01-01T19:06:14.287Z,22.5
2023-01-01T19:11:39.544Z,22.9
2023-01-01T19:16:46.690Z,23.5
2023-01-01T19:22:09.402Z,23.6
2023-01-01T19:27:16.927Z,23.3
2023-01-01T19:32:41.876Z,23.3
2023-01-01T19:38:04.798Z,23.9
2023-01-01T19:43:28.126Z,23.6
2023-01-01T19:48:57.983Z,23.1
2023-01-01T19:54:26.878Z,22.9
2023-01-01T19:59:50.397Z,22.7
2023-01-01T20:06:29.669Z,22.5
2023-01-01T20:11:51.947Z,22.8
2023-01-01T20:16:59.860Z,23.4
2023-01-01T20:22:27.470Z,23.7
2023-01-01T20:27:34.310Z,23.3
2023-01-01T20:33:01.804Z,22.9
2023-01-01T20:38:23.438Z,22.7
2023-01-01T20:43:31.441Z,22.6
2023-01-01T20:48:54.813Z,22.4
2023-01-01T20:54:17.033Z,22.8
2023-01-01T21:00:07.617Z,23.3
2023-01-01T21:05:00.391Z,23.5
2023-01-01T21:10:07.327Z,23.4
2023-01-01T21:15:30.738Z,23.6
2023-01-01T21:20:23.353Z,23.9
2023-01-01T21:31:10.607Z,23.1
2023-01-01T21:36:10.398Z,22.9
2023-01-01T21:41:05.270Z,22.7
2023-01-01T21:46:12.309Z,22.5
2023-01-01T21:51:34.501Z,22.8
2023-01-01T21:56:31.054Z,23.3
2023-01-01T22:01:58.283Z,23.8
2023-01-01T22:08:03.916Z,23.7
2023-01-01T22:13:26.935Z,23.2
2023-01-01T22:18:39.055Z,22.9
2023-01-01T22:24:07.205Z,22.7
2023-01-01T22:29:14.294Z,22.5
2023-01-01T22:34:36.519Z,22.7
2023-01-01T22:40:07.041Z,23.1
2023-01-01T22:45:14.697Z,23.8
2023-01-01T22:50:38.439Z,23.6
2023-01-01T22:55:31.059Z,23.1
2023-01-01T23:00:38.332Z,22.8
2023-01-01T23:05:46.195Z,22.6
2023-01-01T23:11:00.941Z,22.4
2023-01-01T23:16:12.409Z,22.4
2023-01-01T23:21:24.348Z,22.8
2023-01-01T23:26:49.594Z,23.3
2023-01-01T23:31:59.647Z,23.9
2023-01-01T23:37:20.593Z,23.6
2023-01-01T23:42:42.956Z,23.2
2023-01-01T23:48:14.757Z,22.8
2023-01-01T23:53:20.582Z,22.6
2023-01-01T23:58:43.040Z,22.4
